Airfield :
LOGIN :

Register | Disclaimer

   EN    FR    IT 

 










Legend :    VFR   Marginal VFR   IFR   Intensive IFR   Very Intensive IFR
Visi :
Ceiling :
>= 8 km
>= 3000ft
5 to 8 km
1000 to 3000 ft
1500m to 5 km
500 to 1000 ft
800 to 1500m
200 to 500 ft
< 800m
< 200 ft
Symbols :   Thunderstorms  Fog  Heavy snow  Heavy precipitations  Wind > 20 kt
SIGMETs :     Misc.  Thunderstorms  Icing  Turbulence  Mountain Waves  Volcanic Ashes







- Airport Elevation : 202 ft
- IATA code : LGW
- Download approach charts


EGKK - London Gatwick

CURRENT METAR :
  • 261550Z 31009KT 9999 SCT044 13/02 Q1032

EXPIRED METARs :
  • 261520Z 29010KT 9999 SCT043 13/02 Q1032
  • 261450Z 31009KT 270V340 9999 SCT044 13/03 Q1032
  • 261420Z 34008KT 300V030 9999 SCT043 12/03 Q1033
  • 261350Z 32008KT 270V040 9999 SCT041 13/03 Q1033
  • 261320Z 34010KT 9999 BKN037 12/02 Q1033

TAF TAF EGKK
Valid from the 26 at 12:00 until the 27 at 18:00 UTC


261058Z 2612/2718 33010KT 9999 FEW040
BECMG 2618/2621 VRB03KT
PROB30
TEMPO 2701/2708 8000
BECMG 2708/2711 34010KT
No reported NOTAMs for that airfield.



MET'MAP, your aeronautical weather chart ! - Copyright ORBIFLY December 2007 - Disclaimer

ORBIFLY MET'MAP TEAM :

Programming & Development : Alexandra Zaïnal
Concept & Development : Baudouin d'Aumeries
Co-Development & Prog : Marc-Olivier Méhu
Technical & hardware support : Manuel Goepfert

Contact : metmap@orbifly.com




SOURCES & CREDITS :

   NOAA